sensor_id;sensor_type;location;lat;lon;timestamp;pressure;altitude;pressure_sealevel;temperature;humidity
22964;BME280;11648;49.306;6.934;2023-04-01T00:01:24;96921.44;;;12.39;70.91
22964;BME280;11648;49.306;6.934;2023-04-01T00:03:51;96933.06;;;12.13;71.25
22964;BME280;11648;49.306;6.934;2023-04-01T00:06:18;96930.31;;;12.36;70.92
22964;BME280;11648;49.306;6.934;2023-04-01T00:08:45;96921.06;;;12.06;71.19
22964;BME280;11648;49.306;6.934;2023-04-01T00:11:13;96926.94;;;12.33;70.61
22964;BME280;11648;49.306;6.934;2023-04-01T00:13:41;96902.88;;;12.41;70.12
22964;BME280;11648;49.306;6.934;2023-04-01T00:16:08;96915.63;;;12.31;70.35
22964;BME280;11648;49.306;6.934;2023-04-01T00:18:47;96912.19;;;12.49;70.08
22964;BME280;11648;49.306;6.934;2023-04-01T00:21:14;96911.66;;;12.21;70.75
22964;BME280;11648;49.306;6.934;2023-04-01T00:23:41;96904.38;;;12.26;70.62
22964;BME280;11648;49.306;6.934;2023-04-01T00:26:08;96900.09;;;12.23;70.53
22964;BME280;11648;49.306;6.934;2023-04-01T00:28:37;96902.03;;;12.60;69.80
22964;BME280;11648;49.306;6.934;2023-04-01T00:31:05;96899.78;;;12.51;70.39
22964;BME280;11648;49.306;6.934;2023-04-01T00:33:32;96916.53;;;12.30;71.76
22964;BME280;11648;49.306;6.934;2023-04-01T00:36:10;96907.34;;;12.18;72.20
22964;BME280;11648;49.306;6.934;2023-04-01T00:38:38;96899.91;;;12.28;72.08
22964;BME280;11648;49.306;6.934;2023-04-01T00:41:05;96911.56;;;12.22;72.86
22964;BME280;11648;49.306;6.934;2023-04-01T00:43:32;96903.47;;;12.27;73.96
22964;BME280;11648;49.306;6.934;2023-04-01T00:46:00;96909.19;;;11.74;76.33
22964;BME280;11648;49.306;6.934;2023-04-01T00:48:33;96908.84;;;11.82;76.20
22964;BME280;11648;49.306;6.934;2023-04-01T00:51:07;96906.44;;;11.77;76.66
22964;BME280;11648;49.306;6.934;2023-04-01T00:53:41;96903.16;;;11.93;76.73
22964;BME280;11648;49.306;6.934;2023-04-01T00:56:12;96897.97;;;12.11;74.26
22964;BME280;11648;49.306;6.934;2023-04-01T00:58:45;96895.19;;;12.14;74.17
22964;BME280;11648;49.306;6.934;2023-04-01T01:01:13;96891.56;;;11.97;74.48
22964;BME280;11648;49.306;6.934;2023-04-01T01:03:40;96908.19;;;11.99;73.71
22964;BME280;11648;49.306;6.934;2023-04-01T01:09:25;96907.56;;;12.54;73.72
22964;BME280;11648;49.306;6.934;2023-04-01T01:12:03;96900.47;;;12.14;74.85
22964;BME280;11648;49.306;6.934;2023-04-01T01:14:51;96898.66;;;12.36;74.34
22964;BME280;11648;49.306;6.934;2023-04-01T01:17:22;96905.59;;;11.97;75.01
22964;BME280;11648;49.306;6.934;2023-04-01T01:20:14;96897.31;;;12.06;74.48
22964;BME280;11648;49.306;6.934;2023-04-01T01:25:50;96898.63;;;11.96;75.02
22964;BME280;11648;49.306;6.934;2023-04-01T01:31:30;96896.59;;;12.03;75.14
22964;BME280;11648;49.306;6.934;2023-04-01T01:34:21;96891.56;;;11.97;76.35
22964;BME280;11648;49.306;6.934;2023-04-01T01:36:54;96892.28;;;12.00;76.17
22964;BME280;11648;49.306;6.934;2023-04-01T01:39:25;96893.13;;;11.80;77.43
22964;BME280;11648;49.306;6.934;2023-04-01T01:41:57;96898.69;;;11.73;77.85
22964;BME280;11648;49.306;6.934;2023-04-01T01:44:29;96901.75;;;11.84;77.98
22964;BME280;11648;49.306;6.934;2023-04-01T01:46:57;96896.50;;;11.84;78.95
22964;BME280;11648;49.306;6.934;2023-04-01T01:49:25;96897.50;;;12.02;78.62
22964;BME280;11648;49.306;6.934;2023-04-01T01:51:56;96904.75;;;11.75;79.38
22964;BME280;11648;49.306;6.934;2023-04-01T01:54:23;96909.13;;;11.76;80.38
22964;BME280;11648;49.306;6.934;2023-04-01T01:56:54;96899.63;;;11.72;80.65
22964;BME280;11648;49.306;6.934;2023-04-01T01:59:25;96903.97;;;11.73;79.90
22964;BME280;11648;49.306;6.934;2023-04-01T02:01:56;96895.47;;;11.65;80.56
22964;BME280;11648;49.306;6.934;2023-04-01T02:04:23;96907.22;;;11.79;79.49
22964;BME280;11648;49.306;6.934;2023-04-01T02:07:02;96886.63;;;11.67;80.47
22964;BME280;11648;49.306;6.934;2023-04-01T02:09:30;96897.03;;;11.70;80.67
22964;BME280;11648;49.306;6.934;2023-04-01T02:11:59;96902.09;;;11.53;80.67
22964;BME280;11648;49.306;6.934;2023-04-01T02:14:44;96901.03;;;11.57;81.31
22964;BME280;11648;49.306;6.934;2023-04-01T02:17:16;96891.56;;;11.75;80.98
22964;BME280;11648;49.306;6.934;2023-04-01T02:19:54;96892.53;;;11.74;81.26
22964;BME280;11648;49.306;6.934;2023-04-01T02:22:26;96906.16;;;11.62;81.69
22964;BME280;11648;49.306;6.934;2023-04-01T02:24:58;96894.75;;;11.61;81.30
22964;BME280;11648;49.306;6.934;2023-04-01T02:27:25;96885.81;;;11.87;80.52
22964;BME280;11648;49.306;6.934;2023-04-01T02:29:55;96886.25;;;12.18;79.39
22964;BME280;11648;49.306;6.934;2023-04-01T02:32:22;96888.50;;;11.64;81.16
22964;BME280;11648;49.306;6.934;2023-04-01T02:34:49;96895.91;;;11.98;79.11
22964;BME280;11648;49.306;6.934;2023-04-01T02:37:16;96890.31;;;11.85;79.98
22964;BME280;11648;49.306;6.934;2023-04-01T02:39:43;96879.94;;;11.80;79.18
22964;BME280;11648;49.306;6.934;2023-04-01T02:42:10;96885.31;;;11.99;79.06
22964;BME280;11648;49.306;6.934;2023-04-01T02:44:37;96881.53;;;11.84;79.24
22964;BME280;11648;49.306;6.934;2023-04-01T02:47:03;96886.31;;;11.75;79.71
22964;BME280;11648;49.306;6.934;2023-04-01T02:49:30;96880.59;;;11.64;79.59
22964;BME280;11648;49.306;6.934;2023-04-01T02:51:57;96875.34;;;11.64;79.23
22964;BME280;11648;49.306;6.934;2023-04-01T02:54:24;96868.66;;;11.77;78.73
22964;BME280;11648;49.306;6.934;2023-04-01T02:56:50;96866.00;;;12.19;77.46
22964;BME280;11648;49.306;6.934;2023-04-01T02:59:17;96864.53;;;11.70;78.77
22964;BME280;11648;49.306;6.934;2023-04-01T03:01:44;96876.06;;;11.67;78.55
22964;BME280;11648;49.306;6.934;2023-04-01T03:04:11;96863.13;;;11.83;77.32
22964;BME280;11648;49.306;6.934;2023-04-01T03:06:37;96862.09;;;12.07;76.77
22964;BME280;11648;49.306;6.934;2023-04-01T03:09:04;96854.13;;;12.09;77.51
22964;BME280;11648;49.306;6.934;2023-04-01T03:11:31;96854.13;;;11.88;77.63
22964;BME280;11648;49.306;6.934;2023-04-01T03:13:57;96867.03;;;11.95;78.41
22964;BME280;11648;49.306;6.934;2023-04-01T03:16:24;96852.13;;;11.94;77.54
22964;BME280;11648;49.306;6.934;2023-04-01T03:18:51;96871.31;;;11.97;77.82
22964;BME280;11648;49.306;6.934;2023-04-01T03:21:23;96869.00;;;11.68;79.29
22964;BME280;11648;49.306;6.934;2023-04-01T03:23:50;96849.75;;;11.66;79.36
22964;BME280;11648;49.306;6.934;2023-04-01T03:26:17;96866.34;;;11.68;78.95
22964;BME280;11648;49.306;6.934;2023-04-01T03:28:44;96871.75;;;11.65;79.03
22964;BME280;11648;49.306;6.934;2023-04-01T03:31:12;96863.56;;;12.14;78.43
22964;BME280;11648;49.306;6.934;2023-04-01T03:33:45;96879.81;;;11.83;78.96
22964;BME280;11648;49.306;6.934;2023-04-01T03:36:12;96871.56;;;11.71;80.37
22964;BME280;11648;49.306;6.934;2023-04-01T03:38:40;96874.81;;;11.77;79.70
22964;BME280;11648;49.306;6.934;2023-04-01T03:41:07;96886.38;;;11.73;80.32
22964;BME280;11648;49.306;6.934;2023-04-01T03:43:34;96870.13;;;12.04;79.99
22964;BME280;11648;49.306;6.934;2023-04-01T03:46:01;96877.09;;;11.63;80.07
22964;BME280;11648;49.306;6.934;2023-04-01T03:48:28;96871.31;;;11.54;80.96
22964;BME280;11648;49.306;6.934;2023-04-01T03:50:55;96875.94;;;11.70;80.77
22964;BME280;11648;49.306;6.934;2023-04-01T03:53:22;96867.78;;;11.55;80.48
22964;BME280;11648;49.306;6.934;2023-04-01T03:55:49;96880.41;;;11.68;80.84
22964;BME280;11648;49.306;6.934;2023-04-01T03:58:17;96879.31;;;11.52;80.83
22964;BME280;11648;49.306;6.934;2023-04-01T04:00:44;96866.44;;;11.45;81.20
22964;BME280;11648;49.306;6.934;2023-04-01T04:03:11;96863.94;;;11.63;80.87
22964;BME280;11648;49.306;6.934;2023-04-01T04:05:48;96865.16;;;11.76;80.40
22964;BME280;11648;49.306;6.934;2023-04-01T04:08:17;96868.56;;;11.57;80.70
22964;BME280;11648;49.306;6.934;2023-04-01T04:10:44;96853.09;;;11.49;81.09
22964;BME280;11648;49.306;6.934;2023-04-01T04:13:11;96863.31;;;11.35;82.61
22964;BME280;11648;49.306;6.934;2023-04-01T04:15:44;96862.03;;;11.67;81.54
22964;BME280;11648;49.306;6.934;2023-04-01T04:18:10;96855.16;;;11.63;81.46
22964;BME280;11648;49.306;6.934;2023-04-01T04:20:43;96838.09;;;11.28;81.80
22964;BME280;11648;49.306;6.934;2023-04-01T04:23:11;96861.16;;;11.23;81.86
22964;BME280;11648;49.306;6.934;2023-04-01T04:25:40;96865.94;;;11.57;81.48
22964;BME280;11648;49.306;6.934;2023-04-01T04:28:06;96847.44;;;11.36;82.08
22964;BME280;11648;49.306;6.934;2023-04-01T04:30:34;96862.63;;;11.30;82.62
22964;BME280;11648;49.306;6.934;2023-04-01T04:33:00;96841.31;;;11.36;82.21
22964;BME280;11648;49.306;6.934;2023-04-01T04:35:28;96856.94;;;11.62;81.46
22964;BME280;11648;49.306;6.934;2023-04-01T04:37:55;96846.53;;;11.81;80.91
22964;BME280;11648;49.306;6.934;2023-04-01T04:40:21;96858.22;;;11.30;82.31
22964;BME280;11648;49.306;6.934;2023-04-01T04:42:48;96856.56;;;11.71;82.23
22964;BME280;11648;49.306;6.934;2023-04-01T04:45:15;96852.91;;;11.75;81.86
22964;BME280;11648;49.306;6.934;2023-04-01T04:47:51;96858.16;;;11.75;81.84
22964;BME280;11648;49.306;6.934;2023-04-01T04:50:18;96857.78;;;11.41;82.70
22964;BME280;11648;49.306;6.934;2023-04-01T04:52:44;96856.00;;;11.20;84.23
22964;BME280;11648;49.306;6.934;2023-04-01T04:55:11;96838.75;;;11.13;84.06
22964;BME280;11648;49.306;6.934;2023-04-01T04:57:41;96848.09;;;11.20;83.48
22964;BME280;11648;49.306;6.934;2023-04-01T05:00:08;96846.34;;;11.42;83.84
22964;BME280;11648;49.306;6.934;2023-04-01T05:02:51;96840.88;;;11.47;83.77
22964;BME280;11648;49.306;6.934;2023-04-01T05:05:18;96851.97;;;11.33;83.78
22964;BME280;11648;49.306;6.934;2023-04-01T05:07:45;96840.09;;;11.45;83.98
22964;BME280;11648;49.306;6.934;2023-04-01T05:10:12;96828.38;;;11.30;83.78
22964;BME280;11648;49.306;6.934;2023-04-01T05:12:39;96837.06;;;11.32;84.30
22964;BME280;11648;49.306;6.934;2023-04-01T05:15:08;96838.66;;;11.58;83.13
22964;BME280;11648;49.306;6.934;2023-04-01T05:17:35;96851.38;;;11.48;83.82
22964;BME280;11648;49.306;6.934;2023-04-01T05:20:03;96832.53;;;11.35;84.31
22964;BME280;11648;49.306;6.934;2023-04-01T05:22:30;96839.66;;;11.55;84.13
22964;BME280;11648;49.306;6.934;2023-04-01T05:24:57;96834.81;;;11.23;84.95
22964;BME280;11648;49.306;6.934;2023-04-01T05:27:24;96848.59;;;11.51;84.53
22964;BME280;11648;49.306;6.934;2023-04-01T05:29:51;96837.50;;;11.43;84.65
22964;BME280;11648;49.306;6.934;2023-04-01T05:32:45;96841.13;;;11.19;85.76
22964;BME280;11648;49.306;6.934;2023-04-01T05:35:11;96838.66;;;11.36;85.34
22964;BME280;11648;49.306;6.934;2023-04-01T05:37:38;96840.38;;;11.59;83.74
22964;BME280;11648;49.306;6.934;2023-04-01T05:40:05;96848.03;;;11.43;84.54
22964;BME280;11648;49.306;6.934;2023-04-01T05:42:33;96835.44;;;11.29;86.29
22964;BME280;11648;49.306;6.934;2023-04-01T05:45:03;96844.63;;;11.63;85.90
22964;BME280;11648;49.306;6.934;2023-04-01T05:48:08;96849.50;;;11.28;86.70
22964;BME280;11648;49.306;6.934;2023-04-01T05:50:40;96849.63;;;11.47;86.36
22964;BME280;11648;49.306;6.934;2023-04-01T05:53:08;96863.63;;;11.27;87.04
22964;BME280;11648;49.306;6.934;2023-04-01T05:55:36;96853.56;;;11.37;87.34
22964;BME280;11648;49.306;6.934;2023-04-01T05:58:03;96844.81;;;11.36;88.32
22964;BME280;11648;49.306;6.934;2023-04-01T06:00:31;96849.91;;;11.41;87.54
22964;BME280;11648;49.306;6.934;2023-04-01T06:02:59;96861.59;;;11.34;87.58
22964;BME280;11648;49.306;6.934;2023-04-01T06:05:37;96861.28;;;11.42;88.30
22964;BME280;11648;49.306;6.934;2023-04-01T06:08:16;96862.16;;;11.42;88.13
22964;BME280;11648;49.306;6.934;2023-04-01T06:13:36;96837.63;;;11.40;88.98
22964;BME280;11648;49.306;6.934;2023-04-01T06:16:32;96845.59;;;11.17;88.74
22964;BME280;11648;49.306;6.934;2023-04-01T06:40:52;96854.69;;;11.31;90.70
22964;BME280;11648;49.306;6.934;2023-04-01T06:46:43;96857.97;;;11.58;89.34
22964;BME280;11648;49.306;6.934;2023-04-01T06:53:44;96863.72;;;11.46;91.13
22964;BME280;11648;49.306;6.934;2023-04-01T06:56:32;96856.88;;;11.42;90.82
22964;BME280;11648;49.306;6.934;2023-04-01T06:59:22;96869.97;;;11.65;90.30
22964;BME280;11648;49.306;6.934;2023-04-01T07:02:03;96869.97;;;11.65;90.55
22964;BME280;11648;49.306;6.934;2023-04-01T07:04:35;96862.94;;;11.66;90.11
22964;BME280;11648;49.306;6.934;2023-04-01T07:07:29;96856.22;;;12.01;89.58
22964;BME280;11648;49.306;6.934;2023-04-01T07:10:05;96857.28;;;11.97;89.11
22964;BME280;11648;49.306;6.934;2023-04-01T07:12:58;96867.94;;;11.73;90.17
22964;BME280;11648;49.306;6.934;2023-04-01T07:24:37;96865.41;;;12.12;88.22
22964;BME280;11648;49.306;6.934;2023-04-01T07:27:12;96880.97;;;11.98;89.21
22964;BME280;11648;49.306;6.934;2023-04-01T07:29:41;96875.88;;;11.94;88.63
22964;BME280;11648;49.306;6.934;2023-04-01T07:37:57;96877.88;;;12.29;87.83
22964;BME280;11648;49.306;6.934;2023-04-01T07:40:32;96885.22;;;12.43;87.53
22964;BME280;11648;49.306;6.934;2023-04-01T07:51:17;96895.75;;;12.63;85.86
22964;BME280;11648;49.306;6.934;2023-04-01T07:54:09;96885.31;;;12.19;87.04
22964;BME280;11648;49.306;6.934;2023-04-01T08:02:44;96901.44;;;12.33;87.40
22964;BME280;11648;49.306;6.934;2023-04-01T08:08:25;96919.56;;;12.61;86.62
22964;BME280;11648;49.306;6.934;2023-04-01T08:14:52;96921.94;;;12.67;86.96
22964;BME280;11648;49.306;6.934;2023-04-01T08:20:37;96924.25;;;12.75;86.46
22964;BME280;11648;49.306;6.934;2023-04-01T08:23:12;96927.59;;;12.99;85.93
22964;BME280;11648;49.306;6.934;2023-04-01T08:28:46;96935.69;;;12.94;85.48
22964;BME280;11648;49.306;6.934;2023-04-01T08:31:24;96932.44;;;12.89;86.44
22964;BME280;11648;49.306;6.934;2023-04-01T08:33:53;96944.88;;;13.06;86.46
22964;BME280;11648;49.306;6.934;2023-04-01T08:36:28;96941.31;;;13.07;84.92
22964;BME280;11648;49.306;6.934;2023-04-01T08:39:27;96933.78;;;13.18;83.94
22964;BME280;11648;49.306;6.934;2023-04-01T08:42:18;96940.75;;;12.80;85.31
22964;BME280;11648;49.306;6.934;2023-04-01T08:45:20;96944.31;;;12.59;86.83
22964;BME280;11648;49.306;6.934;2023-04-01T08:48:19;96942.50;;;12.79;85.65
22964;BME280;11648;49.306;6.934;2023-04-01T09:05:55;96958.59;;;12.94;86.38
22964;BME280;11648;49.306;6.934;2023-04-01T09:09:38;96955.97;;;12.94;86.83
22964;BME280;11648;49.306;6.934;2023-04-01T09:17:30;96967.16;;;13.00;87.07
22964;BME280;11648;49.306;6.934;2023-04-01T09:23:45;96966.09;;;12.84;87.88
22964;BME280;11648;49.306;6.934;2023-04-01T09:37:51;96974.75;;;12.67;88.68
22964;BME280;11648;49.306;6.934;2023-04-01T09:40:37;96971.03;;;12.92;87.14
22964;BME280;11648;49.306;6.934;2023-04-01T09:46:14;96979.97;;;13.09;86.92
22964;BME280;11648;49.306;6.934;2023-04-01T10:06:58;96999.44;;;13.07;85.10
22964;BME280;11648;49.306;6.934;2023-04-01T10:36:48;97011.28;;;13.37;83.21
22964;BME280;11648;49.306;6.934;2023-04-01T10:55:57;97006.28;;;13.31;82.04
22964;BME280;11648;49.306;6.934;2023-04-01T11:05:46;97015.84;;;13.54;81.85
22964;BME280;11648;49.306;6.934;2023-04-01T11:11:06;97006.34;;;13.68;80.05
22964;BME280;11648;49.306;6.934;2023-04-01T11:52:05;97038.41;;;13.79;78.46
22964;BME280;11648;49.306;6.934;2023-04-01T11:54:52;97053.16;;;13.85;77.02
22964;BME280;11648;49.306;6.934;2023-04-01T12:10:59;97071.91;;;14.37;74.87
22964;BME280;11648;49.306;6.934;2023-04-01T12:18:55;97078.44;;;14.65;75.24
22964;BME280;11648;49.306;6.934;2023-04-01T12:21:52;97084.03;;;14.03;76.70
22964;BME280;11648;49.306;6.934;2023-04-01T12:24:37;97077.75;;;14.24;75.83
22964;BME280;11648;49.306;6.934;2023-04-01T12:27:59;97081.19;;;14.45;75.15
22964;BME280;11648;49.306;6.934;2023-04-01T12:33:24;97092.38;;;14.69;74.42
22964;BME280;11648;49.306;6.934;2023-04-01T12:47:14;97076.88;;;14.05;72.86
22964;BME280;11648;49.306;6.934;2023-04-01T12:52:36;97088.97;;;14.48;73.08
22964;BME280;11648;49.306;6.934;2023-04-01T12:55:24;97102.50;;;14.42;73.00
22964;BME280;11648;49.306;6.934;2023-04-01T13:14:51;97120.28;;;14.20;73.62
22964;BME280;11648;49.306;6.934;2023-04-01T13:17:39;97110.63;;;13.81;74.07
22964;BME280;11648;49.306;6.934;2023-04-01T13:23:41;97116.59;;;13.66;74.21
22964;BME280;11648;49.306;6.934;2023-04-01T13:26:34;97124.38;;;14.27;72.74
22964;BME280;11648;49.306;6.934;2023-04-01T13:35:28;97125.69;;;13.79;73.03
22964;BME280;11648;49.306;6.934;2023-04-01T13:46:32;97142.53;;;13.97;76.87
22964;BME280;11648;49.306;6.934;2023-04-01T14:06:23;97152.25;;;14.15;76.52
22964;BME280;11648;49.306;6.934;2023-04-01T14:11:34;97161.41;;;13.69;78.29
22964;BME280;11648;49.306;6.934;2023-04-01T14:22:26;97162.16;;;13.32;80.54
22964;BME280;11648;49.306;6.934;2023-04-01T14:28:07;97171.59;;;13.58;79.85
22964;BME280;11648;49.306;6.934;2023-04-01T14:30:43;97173.66;;;13.31;78.84
22964;BME280;11648;49.306;6.934;2023-04-01T14:33:31;97175.81;;;13.62;77.01
22964;BME280;11648;49.306;6.934;2023-04-01T14:39:12;97188.03;;;13.24;77.71
22964;BME280;11648;49.306;6.934;2023-04-01T14:41:48;97183.09;;;13.37;77.92
22964;BME280;11648;49.306;6.934;2023-04-01T14:50:17;97188.13;;;13.43;77.64
22964;BME280;11648;49.306;6.934;2023-04-01T14:58:17;97176.84;;;13.40;75.57
22964;BME280;11648;49.306;6.934;2023-04-01T15:11:57;97196.13;;;13.82;74.43
22964;BME280;11648;49.306;6.934;2023-04-01T15:14:46;97191.03;;;13.77;74.87
22964;BME280;11648;49.306;6.934;2023-04-01T15:39:27;97218.44;;;13.55;78.60
22964;BME280;11648;49.306;6.934;2023-04-01T15:50:34;97228.84;;;13.39;77.66
22964;BME280;11648;49.306;6.934;2023-04-01T15:56:10;97238.16;;;13.26;77.44
22964;BME280;11648;49.306;6.934;2023-04-01T16:01:43;97235.47;;;13.06;76.97
22964;BME280;11648;49.306;6.934;2023-04-01T16:04:43;97235.81;;;13.40;76.72
22964;BME280;11648;49.306;6.934;2023-04-01T16:13:03;97238.59;;;13.37;76.09
22964;BME280;11648;49.306;6.934;2023-04-01T16:23:43;97242.34;;;13.53;77.12
22964;BME280;11648;49.306;6.934;2023-04-01T16:26:26;97235.09;;;13.36;77.58
22964;BME280;11648;49.306;6.934;2023-04-01T16:31:35;97237.13;;;13.30;76.19
22964;BME280;11648;49.306;6.934;2023-04-01T16:34:17;97236.09;;;13.34;75.84
22964;BME280;11648;49.306;6.934;2023-04-01T16:37:03;97238.63;;;13.57;74.66
22964;BME280;11648;49.306;6.934;2023-04-01T16:39:49;97233.88;;;13.23;75.22
22964;BME280;11648;49.306;6.934;2023-04-01T16:47:55;97250.84;;;13.40;74.19
22964;BME280;11648;49.306;6.934;2023-04-01T16:50:25;97248.56;;;13.30;73.95
22964;BME280;11648;49.306;6.934;2023-04-01T16:58:19;97254.91;;;13.26;74.68
22964;BME280;11648;49.306;6.934;2023-04-01T17:00:50;97259.69;;;13.17;75.21
22964;BME280;11648;49.306;6.934;2023-04-01T17:03:29;97260.31;;;13.23;74.60
22964;BME280;11648;49.306;6.934;2023-04-01T17:08:44;97265.97;;;13.14;75.39
22964;BME280;11648;49.306;6.934;2023-04-01T17:11:19;97268.63;;;13.14;75.33
22964;BME280;11648;49.306;6.934;2023-04-01T17:19:19;97275.16;;;13.26;75.11
22964;BME280;11648;49.306;6.934;2023-04-01T17:24:41;97277.28;;;13.40;74.87
22964;BME280;11648;49.306;6.934;2023-04-01T17:27:23;97278.06;;;13.42;74.12
22964;BME280;11648;49.306;6.934;2023-04-01T17:35:57;97278.66;;;13.48;74.43
22964;BME280;11648;49.306;6.934;2023-04-01T17:38:44;97286.88;;;13.20;75.84
22964;BME280;11648;49.306;6.934;2023-04-01T17:41:51;97290.88;;;13.51;75.06
22964;BME280;11648;49.306;6.934;2023-04-01T17:47:21;97292.72;;;13.28;75.12
22964;BME280;11648;49.306;6.934;2023-04-01T17:50:09;97295.47;;;13.25;75.51
22964;BME280;11648;49.306;6.934;2023-04-01T18:01:04;97298.13;;;12.79;77.16
22964;BME280;11648;49.306;6.934;2023-04-01T18:14:50;97318.03;;;12.89;76.51
22964;BME280;11648;49.306;6.934;2023-04-01T18:17:33;97324.41;;;13.05;75.88
22964;BME280;11648;49.306;6.934;2023-04-01T18:20:33;97323.59;;;12.81;76.67
22964;BME280;11648;49.306;6.934;2023-04-01T18:23:12;97328.84;;;13.05;75.80
22964;BME280;11648;49.306;6.934;2023-04-01T18:25:47;97332.25;;;12.85;75.95
22964;BME280;11648;49.306;6.934;2023-04-01T18:28:21;97335.94;;;12.81;76.23
22964;BME280;11648;49.306;6.934;2023-04-01T18:31:16;97338.53;;;13.04;75.95
22964;BME280;11648;49.306;6.934;2023-04-01T18:33:46;97346.16;;;13.13;75.68
22964;BME280;11648;49.306;6.934;2023-04-01T18:41:34;97352.69;;;13.03;75.48
22964;BME280;11648;49.306;6.934;2023-04-01T18:46:45;97360.50;;;13.06;75.29
22964;BME280;11648;49.306;6.934;2023-04-01T18:52:34;97361.44;;;13.28;74.66
22964;BME280;11648;49.306;6.934;2023-04-01T18:57:50;97381.44;;;13.34;74.62
22964;BME280;11648;49.306;6.934;2023-04-01T19:00:25;97384.34;;;12.81;75.95
22964;BME280;11648;49.306;6.934;2023-04-01T19:02:58;97381.38;;;13.14;75.29
22964;BME280;11648;49.306;6.934;2023-04-01T19:05:36;97384.00;;;13.14;75.20
22964;BME280;11648;49.306;6.934;2023-04-01T19:08:25;97390.91;;;13.18;74.92
22964;BME280;11648;49.306;6.934;2023-04-01T19:11:24;97391.28;;;13.07;75.34
22964;BME280;11648;49.306;6.934;2023-04-01T19:14:11;97392.56;;;12.72;76.11
22964;BME280;11648;49.306;6.934;2023-04-01T19:17:04;97398.28;;;13.08;74.89
22964;BME280;11648;49.306;6.934;2023-04-01T19:19:42;97402.69;;;12.84;76.07
22964;BME280;11648;49.306;6.934;2023-04-01T19:22:26;97405.69;;;12.99;75.87
22964;BME280;11648;49.306;6.934;2023-04-01T19:25:21;97400.06;;;12.84;75.81
22964;BME280;11648;49.306;6.934;2023-04-01T19:27:52;97403.28;;;12.93;75.55
22964;BME280;11648;49.306;6.934;2023-04-01T19:46:36;97418.94;;;12.74;75.99
22964;BME280;11648;49.306;6.934;2023-04-01T19:51:50;97431.50;;;12.67;76.22
22964;BME280;11648;49.306;6.934;2023-04-01T19:54:34;97430.00;;;12.83;76.08
22964;BME280;11648;49.306;6.934;2023-04-01T19:57:17;97427.69;;;12.99;75.22
22964;BME280;11648;49.306;6.934;2023-04-01T20:00:07;97427.34;;;12.85;75.87
22964;BME280;11648;49.306;6.934;2023-04-01T20:07:57;97435.53;;;13.01;75.19
22964;BME280;11648;49.306;6.934;2023-04-01T20:10:39;97446.22;;;12.74;75.78
22964;BME280;11648;49.306;6.934;2023-04-01T20:16:04;97454.16;;;12.73;76.22
22964;BME280;11648;49.306;6.934;2023-04-01T20:18:48;97457.78;;;12.70;76.45
22964;BME280;11648;49.306;6.934;2023-04-01T20:26:37;97463.22;;;12.91;76.15
22964;BME280;11648;49.306;6.934;2023-04-01T20:35:24;97478.75;;;13.00;75.59
22964;BME280;11648;49.306;6.934;2023-04-01T20:38:06;97486.72;;;12.73;76.12
22964;BME280;11648;49.306;6.934;2023-04-01T20:40:40;97491.88;;;13.01;75.97
22964;BME280;11648;49.306;6.934;2023-04-01T20:46:07;97486.81;;;12.95;76.09
22964;BME280;11648;49.306;6.934;2023-04-01T20:51:30;97493.66;;;13.01;75.66
22964;BME280;11648;49.306;6.934;2023-04-01T20:59:55;97495.09;;;13.11;75.60
22964;BME280;11648;49.306;6.934;2023-04-01T21:03:00;97497.25;;;13.24;75.08
22964;BME280;11648;49.306;6.934;2023-04-01T21:06:10;97502.72;;;12.94;76.31
22964;BME280;11648;49.306;6.934;2023-04-01T21:17:02;97497.31;;;12.72;78.03
22964;BME280;11648;49.306;6.934;2023-04-01T21:22:36;97503.09;;;12.83;77.76
22964;BME280;11648;49.306;6.934;2023-04-01T21:33:46;97508.69;;;12.49;79.85
22964;BME280;11648;49.306;6.934;2023-04-01T21:44:59;97523.13;;;12.39;80.18
22964;BME280;11648;49.306;6.934;2023-04-01T21:50:32;97521.75;;;12.27;81.00
22964;BME280;11648;49.306;6.934;2023-04-01T21:58:49;97533.03;;;12.57;80.14
22964;BME280;11648;49.306;6.934;2023-04-01T22:07:15;97538.13;;;12.63;79.68
22964;BME280;11648;49.306;6.934;2023-04-01T22:21:05;97548.69;;;12.63;80.09
22964;BME280;11648;49.306;6.934;2023-04-01T22:23:50;97545.28;;;12.33;81.12
22964;BME280;11648;49.306;6.934;2023-04-01T22:26:44;97545.25;;;12.35;81.50
22964;BME280;11648;49.306;6.934;2023-04-01T22:32:03;97545.47;;;12.54;80.49
22964;BME280;11648;49.306;6.934;2023-04-01T22:35:04;97555.63;;;12.92;79.15
22964;BME280;11648;49.306;6.934;2023-04-01T22:37:40;97553.84;;;12.93;78.29
22964;BME280;11648;49.306;6.934;2023-04-01T22:40:23;97554.16;;;12.83;78.59
22964;BME280;11648;49.306;6.934;2023-04-01T22:43:13;97557.34;;;12.93;78.75
22964;BME280;11648;49.306;6.934;2023-04-01T22:48:39;97556.25;;;12.74;78.78
22964;BME280;11648;49.306;6.934;2023-04-01T22:51:26;97557.25;;;12.44;79.51
22964;BME280;11648;49.306;6.934;2023-04-01T22:57:08;97557.31;;;12.68;79.31
22964;BME280;11648;49.306;6.934;2023-04-01T22:59:45;97565.50;;;12.61;79.42
22964;BME280;11648;49.306;6.934;2023-04-01T23:02:23;97567.44;;;12.56;80.13
22964;BME280;11648;49.306;6.934;2023-04-01T23:04:55;97575.13;;;12.08;81.95
22964;BME280;11648;49.306;6.934;2023-04-01T23:10:42;97572.44;;;12.37;81.53
22964;BME280;11648;49.306;6.934;2023-04-01T23:13:19;97566.25;;;12.38;80.88
22964;BME280;11648;49.306;6.934;2023-04-01T23:15:51;97571.13;;;12.50;80.42
22964;BME280;11648;49.306;6.934;2023-04-01T23:18:28;97568.44;;;12.52;80.17
22964;BME280;11648;49.306;6.934;2023-04-01T23:26:54;97580.63;;;12.82;78.29
22964;BME280;11648;49.306;6.934;2023-04-01T23:29:22;97579.28;;;12.69;79.01
22964;BME280;11648;49.306;6.934;2023-04-01T23:31:59;97574.06;;;12.41;79.52
22964;BME280;11648;49.306;6.934;2023-04-01T23:34:30;97574.88;;;12.43;79.96
22964;BME280;11648;49.306;6.934;2023-04-01T23:37:04;97590.25;;;12.83;78.66
22964;BME280;11648;49.306;6.934;2023-04-01T23:39:39;97586.97;;;12.76;78.19
22964;BME280;11648;49.306;6.934;2023-04-01T23:42:13;97587.56;;;12.84;78.29